LKKV

Karlovy Vary International Airport

Karlovy Vary, Czech Republic
TAF LKKV 181100Z 1812/1918 27010KT CAVOK BECMG 1816/1818 25004KT TEMPO 1909/1916 27008KT
Issued Valid From Valid To
Jun-18 @ 11:00 UTC
(2 hours ago)
Jun-18 @ 12:00 UTC
(an hour ago)
Jun-19 @ 18:00 UTC
(-1 days ago)
Jun-18 @ 12:00 to Jun-18 @ 16:00
TAF LKKV 181100Z 1812/1918 27010KT CAVOK
Wind Visibility Clouds Conditions
270° at 10 knots 10,000+ meters
  • No significant clouds
Becoming Jun-18 @ 16:00 to Jun-19 @ 18:00
BECMG 1816/1818 25004KT
Wind Visibility Clouds Conditions
250° at 4 knots 10,000+ meters
  • No significant clouds
Temporary Jun-19 @ 09:00 to Jun-19 @ 16:00
TEMPO 1909/1916 27008KT
Wind
270° at 8 knots
TAF LKKV 181100Z 1812/1918 27010KT CAVOK BECMG 1816/1818 25004KT TEMPO 1909/1916 27008KT
Issued Jun-18 @ 11:00 UTC
(2 hours ago)
Valid From Jun-18 @ 12:00 UTC
(an hour ago)
Valid To Jun-19 @ 18:00 UTC
(-1 days ago)
Jun-18 @ 12:00 - Jun-18 @ 16:00
Wind Visibility
270° at 10 knots 10,000+ meters
Clouds
  • No significant clouds
Conditions
Becoming Jun-18 @ 16:00 - Jun-19 @ 18:00
Wind Visibility
250° at 4 knots 10,000+ meters
Clouds
  • No significant clouds
Conditions
Temporary Jun-19 @ 09:00 - Jun-19 @ 16:00
Wind
270° at 8 knots